sensor_id;sensor_type;location;lat;lon;timestamp;P1;durP1;ratioP1;P2;durP2;ratioP2
1262;SDS011;62267;50.112;8.704;2022-08-18T00:05:01;12.20;;;11.00;;
1262;SDS011;62267;50.112;8.704;2022-08-18T00:07:51;11.30;;;10.20;;
1262;SDS011;62267;50.112;8.704;2022-08-18T00:10:39;11.30;;;10.30;;
1262;SDS011;62267;50.112;8.704;2022-08-18T00:13:25;11.80;;;10.70;;
1262;SDS011;62267;50.112;8.704;2022-08-18T00:16:11;12.40;;;11.40;;
1262;SDS011;62267;50.112;8.704;2022-08-18T00:18:57;12.53;;;11.30;;
1262;SDS011;62267;50.112;8.704;2022-08-18T00:21:43;12.77;;;11.57;;
1262;SDS011;62267;50.112;8.704;2022-08-18T00:24:29;11.43;;;10.50;;
1262;SDS011;62267;50.112;8.704;2022-08-18T00:27:16;12.57;;;11.27;;
1262;SDS011;62267;50.112;8.704;2022-08-18T00:30:11;11.80;;;10.70;;
1262;SDS011;62267;50.112;8.704;2022-08-18T00:32:58;11.77;;;10.70;;
1262;SDS011;62267;50.112;8.704;2022-08-18T00:35:45;14.20;;;12.20;;
1262;SDS011;62267;50.112;8.704;2022-08-18T00:38:31;12.57;;;11.27;;
1262;SDS011;62267;50.112;8.704;2022-08-18T00:41:17;11.57;;;10.57;;
1262;SDS011;62267;50.112;8.704;2022-08-18T00:44:04;11.30;;;10.27;;
1262;SDS011;62267;50.112;8.704;2022-08-18T00:46:50;12.60;;;11.60;;
1262;SDS011;62267;50.112;8.704;2022-08-18T00:49:37;11.00;;;10.10;;
1262;SDS011;62267;50.112;8.704;2022-08-18T00:52:26;13.00;;;11.73;;
1262;SDS011;62267;50.112;8.704;2022-08-18T00:55:11;13.00;;;11.90;;
1262;SDS011;62267;50.112;8.704;2022-08-18T00:58:01;13.73;;;12.33;;
1262;SDS011;62267;50.112;8.704;2022-08-18T01:00:48;13.53;;;11.50;;
1262;SDS011;62267;50.112;8.704;2022-08-18T01:03:36;13.57;;;12.37;;
1262;SDS011;62267;50.112;8.704;2022-08-18T01:06:29;12.30;;;11.30;;
1262;SDS011;62267;50.112;8.704;2022-08-18T01:09:17;13.83;;;12.00;;
1262;SDS011;62267;50.112;8.704;2022-08-18T01:12:03;14.10;;;12.70;;
1262;SDS011;62267;50.112;8.704;2022-08-18T01:15:09;13.27;;;12.00;;
1262;SDS011;62267;50.112;8.704;2022-08-18T01:18:12;12.67;;;11.47;;
1262;SDS011;62267;50.112;8.704;2022-08-18T01:21:22;11.43;;;10.50;;
1262;SDS011;62267;50.112;8.704;2022-08-18T01:24:30;14.47;;;13.00;;
1262;SDS011;62267;50.112;8.704;2022-08-18T01:27:37;17.40;;;12.83;;
1262;SDS011;62267;50.112;8.704;2022-08-18T01:30:25;13.37;;;12.03;;
1262;SDS011;62267;50.112;8.704;2022-08-18T01:33:11;13.30;;;12.17;;
1262;SDS011;62267;50.112;8.704;2022-08-18T01:35:59;13.00;;;11.80;;
1262;SDS011;62267;50.112;8.704;2022-08-18T01:38:51;13.30;;;11.97;;
1262;SDS011;62267;50.112;8.704;2022-08-18T01:41:38;14.57;;;13.07;;
1262;SDS011;62267;50.112;8.704;2022-08-18T01:44:24;13.70;;;12.30;;
1262;SDS011;62267;50.112;8.704;2022-08-18T01:47:11;18.23;;;13.67;;
1262;SDS011;62267;50.112;8.704;2022-08-18T01:49:57;14.83;;;13.43;;
1262;SDS011;62267;50.112;8.704;2022-08-18T01:52:44;14.20;;;12.90;;
1262;SDS011;62267;50.112;8.704;2022-08-18T01:55:31;13.73;;;12.53;;
1262;SDS011;62267;50.112;8.704;2022-08-18T01:58:17;13.70;;;12.50;;
1262;SDS011;62267;50.112;8.704;2022-08-18T02:01:05;14.30;;;12.93;;
1262;SDS011;62267;50.112;8.704;2022-08-18T02:03:51;12.83;;;11.63;;
1262;SDS011;62267;50.112;8.704;2022-08-18T02:06:59;13.93;;;12.73;;
1262;SDS011;62267;50.112;8.704;2022-08-18T02:09:48;14.40;;;13.07;;
1262;SDS011;62267;50.112;8.704;2022-08-18T02:12:35;13.47;;;12.30;;
1262;SDS011;62267;50.112;8.704;2022-08-18T02:15:21;12.70;;;11.60;;
1262;SDS011;62267;50.112;8.704;2022-08-18T02:18:25;13.23;;;11.70;;
1262;SDS011;62267;50.112;8.704;2022-08-18T02:21:32;13.13;;;11.93;;
1262;SDS011;62267;50.112;8.704;2022-08-18T02:24:18;12.87;;;11.77;;
1262;SDS011;62267;50.112;8.704;2022-08-18T02:27:04;13.10;;;11.90;;
1262;SDS011;62267;50.112;8.704;2022-08-18T02:29:51;12.93;;;11.80;;
1262;SDS011;62267;50.112;8.704;2022-08-18T02:32:37;13.60;;;12.27;;
1262;SDS011;62267;50.112;8.704;2022-08-18T02:35:22;12.53;;;11.00;;
1262;SDS011;62267;50.112;8.704;2022-08-18T02:38:08;12.03;;;10.93;;
1262;SDS011;62267;50.112;8.704;2022-08-18T02:41:01;13.80;;;12.50;;
1262;SDS011;62267;50.112;8.704;2022-08-18T02:43:47;12.43;;;11.23;;
1262;SDS011;62267;50.112;8.704;2022-08-18T02:46:33;12.17;;;11.07;;
1262;SDS011;62267;50.112;8.704;2022-08-18T02:49:19;12.20;;;11.10;;
1262;SDS011;62267;50.112;8.704;2022-08-18T02:52:05;13.30;;;12.10;;
1262;SDS011;62267;50.112;8.704;2022-08-18T02:54:51;13.03;;;11.90;;
1262;SDS011;62267;50.112;8.704;2022-08-18T02:57:44;13.90;;;11.80;;
1262;SDS011;62267;50.112;8.704;2022-08-18T03:00:30;11.93;;;10.60;;
1262;SDS011;62267;50.112;8.704;2022-08-18T03:03:16;14.70;;;13.27;;
1262;SDS011;62267;50.112;8.704;2022-08-18T03:06:02;12.43;;;11.30;;
1262;SDS011;62267;50.112;8.704;2022-08-18T03:08:48;11.70;;;10.70;;
1262;SDS011;62267;50.112;8.704;2022-08-18T03:11:36;11.90;;;10.80;;
1262;SDS011;62267;50.112;8.704;2022-08-18T03:14:22;13.43;;;12.10;;
1262;SDS011;62267;50.112;8.704;2022-08-18T03:17:08;11.70;;;10.60;;
1262;SDS011;62267;50.112;8.704;2022-08-18T03:19:54;12.87;;;11.27;;
1262;SDS011;62267;50.112;8.704;2022-08-18T03:22:41;12.67;;;11.57;;
1262;SDS011;62267;50.112;8.704;2022-08-18T03:25:26;11.53;;;10.43;;
1262;SDS011;62267;50.112;8.704;2022-08-18T03:28:13;12.77;;;11.40;;
1262;SDS011;62267;50.112;8.704;2022-08-18T03:30:59;12.30;;;11.10;;
1262;SDS011;62267;50.112;8.704;2022-08-18T03:33:45;13.27;;;11.03;;
1262;SDS011;62267;50.112;8.704;2022-08-18T03:36:31;13.20;;;11.80;;
1262;SDS011;62267;50.112;8.704;2022-08-18T03:39:18;11.93;;;10.93;;
1262;SDS011;62267;50.112;8.704;2022-08-18T03:42:07;12.00;;;10.90;;
1262;SDS011;62267;50.112;8.704;2022-08-18T03:44:52;11.40;;;10.40;;
1262;SDS011;62267;50.112;8.704;2022-08-18T03:47:38;11.57;;;10.57;;
1262;SDS011;62267;50.112;8.704;2022-08-18T03:50:25;11.10;;;10.00;;
1262;SDS011;62267;50.112;8.704;2022-08-18T03:53:10;11.97;;;10.77;;
1262;SDS011;62267;50.112;8.704;2022-08-18T03:55:56;12.73;;;11.60;;
1262;SDS011;62267;50.112;8.704;2022-08-18T03:58:43;11.20;;;10.20;;
1262;SDS011;62267;50.112;8.704;2022-08-18T04:01:33;12.80;;;10.93;;
1262;SDS011;62267;50.112;8.704;2022-08-18T04:04:24;11.27;;;10.17;;
1262;SDS011;62267;50.112;8.704;2022-08-18T04:07:10;11.23;;;10.20;;
1262;SDS011;62267;50.112;8.704;2022-08-18T04:09:57;16.40;;;12.37;;
1262;SDS011;62267;50.112;8.704;2022-08-18T04:12:43;12.53;;;11.33;;
1262;SDS011;62267;50.112;8.704;2022-08-18T04:15:28;12.07;;;10.43;;
1262;SDS011;62267;50.112;8.704;2022-08-18T04:18:14;12.10;;;10.53;;
1262;SDS011;62267;50.112;8.704;2022-08-18T04:21:00;12.53;;;9.90;;
1262;SDS011;62267;50.112;8.704;2022-08-18T04:23:47;16.53;;;11.33;;
1262;SDS011;62267;50.112;8.704;2022-08-18T04:26:37;12.70;;;11.40;;
1262;SDS011;62267;50.112;8.704;2022-08-18T04:29:24;10.97;;;9.90;;
1262;SDS011;62267;50.112;8.704;2022-08-18T04:32:09;12.23;;;10.87;;
1262;SDS011;62267;50.112;8.704;2022-08-18T04:34:55;11.13;;;10.03;;
1262;SDS011;62267;50.112;8.704;2022-08-18T04:37:46;10.13;;;9.23;;
1262;SDS011;62267;50.112;8.704;2022-08-18T04:40:32;10.70;;;9.70;;
1262;SDS011;62267;50.112;8.704;2022-08-18T04:43:18;10.53;;;9.53;;
1262;SDS011;62267;50.112;8.704;2022-08-18T04:46:04;11.13;;;9.80;;
1262;SDS011;62267;50.112;8.704;2022-08-18T04:48:50;12.73;;;10.70;;
1262;SDS011;62267;50.112;8.704;2022-08-18T04:51:39;11.00;;;10.00;;
1262;SDS011;62267;50.112;8.704;2022-08-18T04:54:45;10.67;;;9.77;;
1262;SDS011;62267;50.112;8.704;2022-08-18T04:57:31;11.17;;;10.17;;
1262;SDS011;62267;50.112;8.704;2022-08-18T05:00:18;11.50;;;10.03;;
1262;SDS011;62267;50.112;8.704;2022-08-18T05:03:06;12.30;;;10.80;;
1262;SDS011;62267;50.112;8.704;2022-08-18T05:05:53;11.37;;;10.27;;
1262;SDS011;62267;50.112;8.704;2022-08-18T05:08:39;11.73;;;10.53;;
1262;SDS011;62267;50.112;8.704;2022-08-18T05:11:27;10.03;;;9.10;;
1262;SDS011;62267;50.112;8.704;2022-08-18T05:14:13;11.13;;;9.73;;
1262;SDS011;62267;50.112;8.704;2022-08-18T05:17:00;10.70;;;9.70;;
1262;SDS011;62267;50.112;8.704;2022-08-18T05:19:46;11.23;;;10.23;;
1262;SDS011;62267;50.112;8.704;2022-08-18T05:22:40;10.10;;;9.10;;
1262;SDS011;62267;50.112;8.704;2022-08-18T05:25:27;11.03;;;9.10;;
1262;SDS011;62267;50.112;8.704;2022-08-18T05:28:13;10.60;;;9.50;;
1262;SDS011;62267;50.112;8.704;2022-08-18T05:31:05;10.00;;;9.00;;
1262;SDS011;62267;50.112;8.704;2022-08-18T05:33:57;9.40;;;8.50;;
1262;SDS011;62267;50.112;8.704;2022-08-18T05:39:39;12.70;;;8.40;;
1262;SDS011;62267;50.112;8.704;2022-08-18T05:42:33;10.30;;;8.90;;
1262;SDS011;62267;50.112;8.704;2022-08-18T05:45:20;12.07;;;10.73;;
1262;SDS011;62267;50.112;8.704;2022-08-18T05:48:06;10.00;;;9.10;;
1262;SDS011;62267;50.112;8.704;2022-08-18T05:50:51;9.80;;;8.80;;
1262;SDS011;62267;50.112;8.704;2022-08-18T05:53:38;9.90;;;8.93;;
1262;SDS011;62267;50.112;8.704;2022-08-18T05:56:44;10.50;;;9.50;;
1262;SDS011;62267;50.112;8.704;2022-08-18T05:59:32;10.00;;;9.10;;
1262;SDS011;62267;50.112;8.704;2022-08-18T06:02:35;9.40;;;8.57;;
1262;SDS011;62267;50.112;8.704;2022-08-18T06:05:25;9.93;;;9.03;;
1262;SDS011;62267;50.112;8.704;2022-08-18T06:08:12;10.23;;;9.00;;
1262;SDS011;62267;50.112;8.704;2022-08-18T06:10:58;10.80;;;8.53;;
1262;SDS011;62267;50.112;8.704;2022-08-18T06:13:44;11.90;;;9.70;;
1262;SDS011;62267;50.112;8.704;2022-08-18T06:22:39;10.07;;;9.13;;
1262;SDS011;62267;50.112;8.704;2022-08-18T06:25:46;10.77;;;9.77;;
1262;SDS011;62267;50.112;8.704;2022-08-18T06:28:39;11.13;;;10.10;;
1262;SDS011;62267;50.112;8.704;2022-08-18T06:34:17;11.10;;;10.00;;
1262;SDS011;62267;50.112;8.704;2022-08-18T06:37:09;11.23;;;10.13;;
1262;SDS011;62267;50.112;8.704;2022-08-18T06:39:55;26.80;;;13.13;;
1262;SDS011;62267;50.112;8.704;2022-08-18T06:42:43;12.90;;;11.30;;
1262;SDS011;62267;50.112;8.704;2022-08-18T06:45:32;11.47;;;10.23;;
1262;SDS011;62267;50.112;8.704;2022-08-18T06:48:31;11.30;;;10.10;;
1262;SDS011;62267;50.112;8.704;2022-08-18T06:51:22;13.90;;;11.30;;
1262;SDS011;62267;50.112;8.704;2022-08-18T06:57:03;12.70;;;10.87;;
1262;SDS011;62267;50.112;8.704;2022-08-18T07:00:00;11.80;;;9.93;;
1262;SDS011;62267;50.112;8.704;2022-08-18T07:08:52;12.13;;;10.83;;
1262;SDS011;62267;50.112;8.704;2022-08-18T07:11:38;13.20;;;11.77;;
1262;SDS011;62267;50.112;8.704;2022-08-18T07:14:27;14.80;;;11.67;;
1262;SDS011;62267;50.112;8.704;2022-08-18T07:17:18;11.73;;;10.13;;
1262;SDS011;62267;50.112;8.704;2022-08-18T07:20:25;12.43;;;9.80;;
1262;SDS011;62267;50.112;8.704;2022-08-18T07:23:31;11.60;;;10.17;;
1262;SDS011;62267;50.112;8.704;2022-08-18T07:26:20;11.70;;;10.60;;
1262;SDS011;62267;50.112;8.704;2022-08-18T07:29:13;12.53;;;10.63;;
1262;SDS011;62267;50.112;8.704;2022-08-18T07:32:15;11.27;;;10.13;;
1262;SDS011;62267;50.112;8.704;2022-08-18T07:35:06;10.57;;;9.47;;
1262;SDS011;62267;50.112;8.704;2022-08-18T07:38:00;11.50;;;9.90;;
1262;SDS011;62267;50.112;8.704;2022-08-18T07:41:15;10.97;;;9.83;;
1262;SDS011;62267;50.112;8.704;2022-08-18T07:46:59;12.53;;;10.93;;
1262;SDS011;62267;50.112;8.704;2022-08-18T07:49:47;13.23;;;11.10;;
1262;SDS011;62267;50.112;8.704;2022-08-18T07:56:04;12.30;;;11.03;;
1262;SDS011;62267;50.112;8.704;2022-08-18T07:59:00;12.50;;;10.43;;
1262;SDS011;62267;50.112;8.704;2022-08-18T08:02:09;13.10;;;11.80;;
1262;SDS011;62267;50.112;8.704;2022-08-18T08:05:00;12.27;;;11.17;;
1262;SDS011;62267;50.112;8.704;2022-08-18T08:07:55;15.50;;;11.40;;
1262;SDS011;62267;50.112;8.704;2022-08-18T08:10:46;19.40;;;17.40;;
1262;SDS011;62267;50.112;8.704;2022-08-18T08:19:45;14.37;;;12.10;;
1262;SDS011;62267;50.112;8.704;2022-08-18T08:22:51;13.77;;;12.47;;
1262;SDS011;62267;50.112;8.704;2022-08-18T08:25:44;13.37;;;12.00;;
1262;SDS011;62267;50.112;8.704;2022-08-18T08:31:53;14.77;;;11.70;;
1262;SDS011;62267;50.112;8.704;2022-08-18T08:34:51;13.97;;;12.33;;
1262;SDS011;62267;50.112;8.704;2022-08-18T08:37:47;11.43;;;10.20;;
1262;SDS011;62267;50.112;8.704;2022-08-18T08:43:51;13.83;;;12.20;;
1262;SDS011;62267;50.112;8.704;2022-08-18T08:46:53;21.43;;;12.67;;
1262;SDS011;62267;50.112;8.704;2022-08-18T08:52:43;15.47;;;11.10;;
1262;SDS011;62267;50.112;8.704;2022-08-18T08:55:35;13.80;;;12.40;;
1262;SDS011;62267;50.112;8.704;2022-08-18T09:01:10;13.57;;;10.90;;
1262;SDS011;62267;50.112;8.704;2022-08-18T09:04:00;12.20;;;11.00;;
1262;SDS011;62267;50.112;8.704;2022-08-18T09:07:01;19.20;;;9.83;;
1262;SDS011;62267;50.112;8.704;2022-08-18T09:10:05;12.70;;;11.40;;
1262;SDS011;62267;50.112;8.704;2022-08-18T09:12:59;16.83;;;12.40;;
1262;SDS011;62267;50.112;8.704;2022-08-18T09:15:54;13.93;;;12.53;;
1262;SDS011;62267;50.112;8.704;2022-08-18T09:21:39;16.87;;;15.10;;
1262;SDS011;62267;50.112;8.704;2022-08-18T09:24:29;17.47;;;14.97;;
1262;SDS011;62267;50.112;8.704;2022-08-18T09:27:41;20.30;;;16.47;;
1262;SDS011;62267;50.112;8.704;2022-08-18T09:31:12;18.77;;;15.67;;
1262;SDS011;62267;50.112;8.704;2022-08-18T09:34:18;24.00;;;19.37;;
1262;SDS011;62267;50.112;8.704;2022-08-18T09:37:11;23.13;;;18.80;;
1262;SDS011;62267;50.112;8.704;2022-08-18T09:40:05;24.50;;;21.23;;
1262;SDS011;62267;50.112;8.704;2022-08-18T09:43:56;26.53;;;23.57;;
1262;SDS011;62267;50.112;8.704;2022-08-18T09:58:14;28.00;;;23.90;;
1262;SDS011;62267;50.112;8.704;2022-08-18T10:07:12;28.37;;;23.00;;
1262;SDS011;62267;50.112;8.704;2022-08-18T10:10:19;22.77;;;20.27;;
1262;SDS011;62267;50.112;8.704;2022-08-18T10:13:34;28.80;;;25.70;;
1262;SDS011;62267;50.112;8.704;2022-08-18T10:17:36;26.13;;;22.27;;
1262;SDS011;62267;50.112;8.704;2022-08-18T10:20:23;26.73;;;23.37;;
1262;SDS011;62267;50.112;8.704;2022-08-18T10:23:11;27.23;;;21.40;;
1262;SDS011;62267;50.112;8.704;2022-08-18T10:35:00;27.73;;;21.43;;
1262;SDS011;62267;50.112;8.704;2022-08-18T10:37:50;25.13;;;22.43;;
1262;SDS011;62267;50.112;8.704;2022-08-18T10:40:36;22.27;;;19.90;;
1262;SDS011;62267;50.112;8.704;2022-08-18T10:43:37;25.43;;;21.73;;
1262;SDS011;62267;50.112;8.704;2022-08-18T10:46:42;23.67;;;20.17;;
1262;SDS011;62267;50.112;8.704;2022-08-18T10:49:30;24.60;;;20.80;;
1262;SDS011;62267;50.112;8.704;2022-08-18T10:52:51;23.70;;;20.10;;
1262;SDS011;62267;50.112;8.704;2022-08-18T10:56:02;25.03;;;22.10;;
1262;SDS011;62267;50.112;8.704;2022-08-18T11:02:00;23.37;;;20.97;;
1262;SDS011;62267;50.112;8.704;2022-08-18T11:05:04;22.93;;;20.10;;
1262;SDS011;62267;50.112;8.704;2022-08-18T11:07:55;20.37;;;18.23;;
1262;SDS011;62267;50.112;8.704;2022-08-18T11:10:48;22.60;;;19.77;;
1262;SDS011;62267;50.112;8.704;2022-08-18T11:13:58;21.83;;;18.83;;
1262;SDS011;62267;50.112;8.704;2022-08-18T11:19:50;22.63;;;20.20;;
1262;SDS011;62267;50.112;8.704;2022-08-18T11:22:37;24.10;;;20.60;;
1262;SDS011;62267;50.112;8.704;2022-08-18T11:25:25;23.10;;;20.20;;
1262;SDS011;62267;50.112;8.704;2022-08-18T11:28:17;21.40;;;19.17;;
1262;SDS011;62267;50.112;8.704;2022-08-18T11:31:04;19.40;;;17.30;;
1262;SDS011;62267;50.112;8.704;2022-08-18T11:33:50;21.13;;;18.87;;
1262;SDS011;62267;50.112;8.704;2022-08-18T11:36:38;22.37;;;19.50;;
1262;SDS011;62267;50.112;8.704;2022-08-18T11:39:50;23.73;;;19.37;;
1262;SDS011;62267;50.112;8.704;2022-08-18T11:42:38;22.57;;;20.17;;
1262;SDS011;62267;50.112;8.704;2022-08-18T11:45:28;33.97;;;23.50;;
1262;SDS011;62267;50.112;8.704;2022-08-18T11:51:35;19.67;;;17.20;;
1262;SDS011;62267;50.112;8.704;2022-08-18T11:54:33;20.97;;;18.83;;
1262;SDS011;62267;50.112;8.704;2022-08-18T11:57:26;20.40;;;18.20;;
1262;SDS011;62267;50.112;8.704;2022-08-18T12:00:34;21.13;;;18.67;;
1262;SDS011;62267;50.112;8.704;2022-08-18T12:06:33;19.93;;;17.93;;
1262;SDS011;62267;50.112;8.704;2022-08-18T12:09:21;19.67;;;17.60;;
1262;SDS011;62267;50.112;8.704;2022-08-18T12:12:28;19.53;;;17.60;;
1262;SDS011;62267;50.112;8.704;2022-08-18T12:18:08;21.70;;;19.00;;
1262;SDS011;62267;50.112;8.704;2022-08-18T12:21:02;18.33;;;16.53;;
1262;SDS011;62267;50.112;8.704;2022-08-18T12:23:50;23.73;;;21.33;;
1262;SDS011;62267;50.112;8.704;2022-08-18T12:26:38;18.80;;;17.00;;
1262;SDS011;62267;50.112;8.704;2022-08-18T12:29:31;19.67;;;17.67;;
1262;SDS011;62267;50.112;8.704;2022-08-18T12:32:28;19.77;;;17.23;;
1262;SDS011;62267;50.112;8.704;2022-08-18T12:35:34;18.00;;;15.03;;
1262;SDS011;62267;50.112;8.704;2022-08-18T12:38:20;16.03;;;14.53;;
1262;SDS011;62267;50.112;8.704;2022-08-18T12:41:07;16.17;;;14.27;;
1262;SDS011;62267;50.112;8.704;2022-08-18T12:43:56;16.50;;;14.80;;
1262;SDS011;62267;50.112;8.704;2022-08-18T12:46:53;16.30;;;14.83;;
1262;SDS011;62267;50.112;8.704;2022-08-18T12:49:43;17.73;;;16.00;;
1262;SDS011;62267;50.112;8.704;2022-08-18T12:52:34;18.40;;;16.50;;
1262;SDS011;62267;50.112;8.704;2022-08-18T12:55:23;18.70;;;17.00;;
1262;SDS011;62267;50.112;8.704;2022-08-18T12:58:13;20.30;;;18.30;;
1262;SDS011;62267;50.112;8.704;2022-08-18T13:01:00;20.33;;;18.33;;
1262;SDS011;62267;50.112;8.704;2022-08-18T13:03:47;18.70;;;17.00;;
1262;SDS011;62267;50.112;8.704;2022-08-18T13:06:55;17.77;;;15.97;;
1262;SDS011;62267;50.112;8.704;2022-08-18T13:09:45;18.00;;;16.20;;
1262;SDS011;62267;50.112;8.704;2022-08-18T13:12:38;16.47;;;14.87;;
1262;SDS011;62267;50.112;8.704;2022-08-18T13:15:23;17.30;;;15.53;;
1262;SDS011;62267;50.112;8.704;2022-08-18T13:18:10;18.17;;;16.37;;
1262;SDS011;62267;50.112;8.704;2022-08-18T13:20:58;18.60;;;16.90;;
1262;SDS011;62267;50.112;8.704;2022-08-18T13:23:44;17.00;;;15.50;;
1262;SDS011;62267;50.112;8.704;2022-08-18T13:26:37;17.33;;;15.63;;
1262;SDS011;62267;50.112;8.704;2022-08-18T13:29:25;17.80;;;16.10;;
1262;SDS011;62267;50.112;8.704;2022-08-18T13:32:11;17.03;;;15.30;;
1262;SDS011;62267;50.112;8.704;2022-08-18T13:35:03;16.83;;;15.13;;
1262;SDS011;62267;50.112;8.704;2022-08-18T13:37:57;16.10;;;14.57;;
1262;SDS011;62267;50.112;8.704;2022-08-18T13:40:43;16.13;;;14.53;;
1262;SDS011;62267;50.112;8.704;2022-08-18T13:43:33;18.03;;;16.33;;
1262;SDS011;62267;50.112;8.704;2022-08-18T13:46:23;17.67;;;15.90;;
1262;SDS011;62267;50.112;8.704;2022-08-18T13:49:15;17.80;;;16.10;;
1262;SDS011;62267;50.112;8.704;2022-08-18T13:52:13;17.80;;;16.10;;
1262;SDS011;62267;50.112;8.704;2022-08-18T13:55:19;17.60;;;16.10;;
1262;SDS011;62267;50.112;8.704;2022-08-18T13:58:06;19.43;;;17.63;;
1262;SDS011;62267;50.112;8.704;2022-08-18T14:01:06;18.80;;;17.00;;
1262;SDS011;62267;50.112;8.704;2022-08-18T14:04:14;17.20;;;15.67;;
1262;SDS011;62267;50.112;8.704;2022-08-18T14:07:05;16.73;;;15.07;;
1262;SDS011;62267;50.112;8.704;2022-08-18T14:09:56;17.33;;;15.67;;
1262;SDS011;62267;50.112;8.704;2022-08-18T14:12:53;13.50;;;12.40;;
1262;SDS011;62267;50.112;8.704;2022-08-18T14:15:40;13.63;;;12.43;;
1262;SDS011;62267;50.112;8.704;2022-08-18T14:18:35;14.27;;;13.00;;
1262;SDS011;62267;50.112;8.704;2022-08-18T14:21:23;14.27;;;12.87;;
1262;SDS011;62267;50.112;8.704;2022-08-18T14:24:27;15.27;;;13.87;;
1262;SDS011;62267;50.112;8.704;2022-08-18T14:27:35;14.40;;;13.10;;
1262;SDS011;62267;50.112;8.704;2022-08-18T14:30:21;14.40;;;13.10;;
1262;SDS011;62267;50.112;8.704;2022-08-18T14:33:07;13.50;;;12.40;;
1262;SDS011;62267;50.112;8.704;2022-08-18T14:35:56;14.03;;;12.80;;
1262;SDS011;62267;50.112;8.704;2022-08-18T14:38:53;13.30;;;12.00;;
1262;SDS011;62267;50.112;8.704;2022-08-18T14:41:40;16.87;;;15.37;;
1262;SDS011;62267;50.112;8.704;2022-08-18T14:44:38;15.50;;;14.10;;
1262;SDS011;62267;50.112;8.704;2022-08-18T14:47:29;13.07;;;11.77;;
1262;SDS011;62267;50.112;8.704;2022-08-18T14:50:21;13.23;;;12.13;;
1262;SDS011;62267;50.112;8.704;2022-08-18T14:53:09;13.23;;;12.03;;
1262;SDS011;62267;50.112;8.704;2022-08-18T14:55:59;12.37;;;11.27;;
1262;SDS011;62267;50.112;8.704;2022-08-18T14:58:46;14.00;;;12.70;;
1262;SDS011;62267;50.112;8.704;2022-08-18T15:01:33;14.20;;;13.10;;
1262;SDS011;62267;50.112;8.704;2022-08-18T15:04:26;15.43;;;14.03;;
1262;SDS011;62267;50.112;8.704;2022-08-18T15:07:12;14.27;;;13.07;;
1262;SDS011;62267;50.112;8.704;2022-08-18T15:09:58;13.03;;;12.03;;
1262;SDS011;62267;50.112;8.704;2022-08-18T15:13:00;15.53;;;14.23;;
1262;SDS011;62267;50.112;8.704;2022-08-18T15:15:47;14.80;;;13.40;;
1262;SDS011;62267;50.112;8.704;2022-08-18T15:18:36;15.53;;;14.10;;
1262;SDS011;62267;50.112;8.704;2022-08-18T15:21:22;15.67;;;14.37;;
1262;SDS011;62267;50.112;8.704;2022-08-18T15:24:27;14.57;;;13.37;;
1262;SDS011;62267;50.112;8.704;2022-08-18T15:27:32;15.70;;;14.37;;
1262;SDS011;62267;50.112;8.704;2022-08-18T15:30:27;15.60;;;14.10;;
1262;SDS011;62267;50.112;8.704;2022-08-18T15:33:13;15.93;;;14.53;;
1262;SDS011;62267;50.112;8.704;2022-08-18T15:35:59;17.00;;;15.40;;
1262;SDS011;62267;50.112;8.704;2022-08-18T15:38:53;15.43;;;14.13;;
1262;SDS011;62267;50.112;8.704;2022-08-18T15:41:42;16.07;;;14.60;;
1262;SDS011;62267;50.112;8.704;2022-08-18T15:44:33;16.43;;;14.93;;
1262;SDS011;62267;50.112;8.704;2022-08-18T15:47:21;15.73;;;14.37;;
1262;SDS011;62267;50.112;8.704;2022-08-18T15:50:10;15.77;;;14.37;;
1262;SDS011;62267;50.112;8.704;2022-08-18T15:53:10;14.60;;;13.20;;
1262;SDS011;62267;50.112;8.704;2022-08-18T15:55:57;13.83;;;12.63;;
1262;SDS011;62267;50.112;8.704;2022-08-18T15:58:48;14.47;;;13.20;;
1262;SDS011;62267;50.112;8.704;2022-08-18T16:01:35;15.13;;;13.60;;
1262;SDS011;62267;50.112;8.704;2022-08-18T16:04:26;16.60;;;15.00;;
1262;SDS011;62267;50.112;8.704;2022-08-18T16:07:12;15.93;;;14.50;;
1262;SDS011;62267;50.112;8.704;2022-08-18T16:10:19;15.13;;;13.83;;
1262;SDS011;62267;50.112;8.704;2022-08-18T16:13:06;17.03;;;15.50;;
1262;SDS011;62267;50.112;8.704;2022-08-18T16:15:52;15.13;;;13.43;;
1262;SDS011;62267;50.112;8.704;2022-08-18T16:18:38;18.47;;;16.67;;
1262;SDS011;62267;50.112;8.704;2022-08-18T16:21:24;17.73;;;15.83;;
1262;SDS011;62267;50.112;8.704;2022-08-18T16:24:11;16.20;;;14.57;;
1262;SDS011;62267;50.112;8.704;2022-08-18T16:27:02;14.90;;;13.50;;
1262;SDS011;62267;50.112;8.704;2022-08-18T16:29:50;15.90;;;13.53;;
1262;SDS011;62267;50.112;8.704;2022-08-18T16:32:36;14.33;;;12.80;;
1262;SDS011;62267;50.112;8.704;2022-08-18T16:35:22;16.87;;;15.17;;
1262;SDS011;62267;50.112;8.704;2022-08-18T16:38:08;16.67;;;15.00;;
1262;SDS011;62267;50.112;8.704;2022-08-18T16:40:54;14.80;;;13.43;;
1262;SDS011;62267;50.112;8.704;2022-08-18T16:43:42;15.50;;;12.50;;
1262;SDS011;62267;50.112;8.704;2022-08-18T16:46:28;14.17;;;12.87;;
1262;SDS011;62267;50.112;8.704;2022-08-18T16:49:14;13.33;;;12.00;;
1262;SDS011;62267;50.112;8.704;2022-08-18T16:52:00;14.03;;;12.67;;
1262;SDS011;62267;50.112;8.704;2022-08-18T16:54:46;15.17;;;13.73;;
1262;SDS011;62267;50.112;8.704;2022-08-18T16:57:42;13.03;;;11.70;;
1262;SDS011;62267;50.112;8.704;2022-08-18T17:00:47;18.60;;;16.60;;
1262;SDS011;62267;50.112;8.704;2022-08-18T17:03:51;17.37;;;15.77;;
1262;SDS011;62267;50.112;8.704;2022-08-18T17:07:05;18.27;;;16.47;;
1262;SDS011;62267;50.112;8.704;2022-08-18T17:09:50;17.20;;;15.33;;
1262;SDS011;62267;50.112;8.704;2022-08-18T17:12:36;19.00;;;17.10;;
1262;SDS011;62267;50.112;8.704;2022-08-18T17:15:22;16.40;;;14.90;;
1262;SDS011;62267;50.112;8.704;2022-08-18T17:18:07;15.40;;;14.00;;
1262;SDS011;62267;50.112;8.704;2022-08-18T17:20:55;18.10;;;16.40;;
1262;SDS011;62267;50.112;8.704;2022-08-18T17:23:43;18.00;;;16.10;;
1262;SDS011;62267;50.112;8.704;2022-08-18T17:27:08;17.57;;;15.87;;
1262;SDS011;62267;50.112;8.704;2022-08-18T17:30:12;17.50;;;15.67;;
1262;SDS011;62267;50.112;8.704;2022-08-18T17:33:01;18.17;;;16.57;;
1262;SDS011;62267;50.112;8.704;2022-08-18T17:35:49;19.40;;;17.23;;
1262;SDS011;62267;50.112;8.704;2022-08-18T17:38:39;18.23;;;16.60;;
1262;SDS011;62267;50.112;8.704;2022-08-18T17:41:27;18.63;;;16.83;;
1262;SDS011;62267;50.112;8.704;2022-08-18T17:44:14;22.73;;;20.50;;
1262;SDS011;62267;50.112;8.704;2022-08-18T17:46:59;19.77;;;17.87;;
1262;SDS011;62267;50.112;8.704;2022-08-18T17:49:47;20.50;;;18.50;;
1262;SDS011;62267;50.112;8.704;2022-08-18T17:53:12;18.50;;;16.70;;
1262;SDS011;62267;50.112;8.704;2022-08-18T17:55:59;18.57;;;16.80;;
1262;SDS011;62267;50.112;8.704;2022-08-18T17:58:52;19.37;;;17.37;;
1262;SDS011;62267;50.112;8.704;2022-08-18T18:01:40;22.40;;;20.07;;
1262;SDS011;62267;50.112;8.704;2022-08-18T18:04:27;18.83;;;16.97;;
1262;SDS011;62267;50.112;8.704;2022-08-18T18:07:27;21.57;;;19.50;;
1262;SDS011;62267;50.112;8.704;2022-08-18T18:10:20;18.57;;;16.67;;
1262;SDS011;62267;50.112;8.704;2022-08-18T18:13:11;21.30;;;19.20;;
1262;SDS011;62267;50.112;8.704;2022-08-18T18:15:58;20.60;;;18.60;;
1262;SDS011;62267;50.112;8.704;2022-08-18T18:18:45;18.80;;;16.90;;
1262;SDS011;62267;50.112;8.704;2022-08-18T18:21:32;23.33;;;20.73;;
1262;SDS011;62267;50.112;8.704;2022-08-18T18:24:38;19.90;;;17.97;;
1262;SDS011;62267;50.112;8.704;2022-08-18T18:27:37;18.80;;;17.00;;
1262;SDS011;62267;50.112;8.704;2022-08-18T18:30:23;20.30;;;18.20;;
1262;SDS011;62267;50.112;8.704;2022-08-18T18:33:16;21.57;;;19.37;;
1262;SDS011;62267;50.112;8.704;2022-08-18T18:36:02;22.80;;;20.47;;